sensor_id;sensor_type;location;lat;lon;timestamp;P1;durP1;ratioP1;P2;durP2;ratioP2
40046;SDS011;31510;48.122;11.576;2023-02-25T00:02:17;8.00;;;3.97;;
40046;SDS011;31510;48.122;11.576;2023-02-25T00:04:42;7.18;;;4.38;;
40046;SDS011;31510;48.122;11.576;2023-02-25T00:07:07;6.20;;;3.72;;
40046;SDS011;31510;48.122;11.576;2023-02-25T00:09:33;8.82;;;4.10;;
40046;SDS011;31510;48.122;11.576;2023-02-25T00:11:58;6.25;;;3.83;;
40046;SDS011;31510;48.122;11.576;2023-02-25T00:14:23;6.22;;;3.78;;
40046;SDS011;31510;48.122;11.576;2023-02-25T00:16:49;5.88;;;3.70;;
40046;SDS011;31510;48.122;11.576;2023-02-25T00:19:14;7.82;;;3.15;;
40046;SDS011;31510;48.122;11.576;2023-02-25T00:21:40;7.20;;;3.30;;
40046;SDS011;31510;48.122;11.576;2023-02-25T00:24:05;5.90;;;3.20;;
40046;SDS011;31510;48.122;11.576;2023-02-25T00:26:31;6.53;;;2.45;;
40046;SDS011;31510;48.122;11.576;2023-02-25T00:28:56;6.60;;;2.95;;
40046;SDS011;31510;48.122;11.576;2023-02-25T00:31:22;4.97;;;2.50;;
40046;SDS011;31510;48.122;11.576;2023-02-25T00:33:49;5.00;;;2.97;;
40046;SDS011;31510;48.122;11.576;2023-02-25T00:36:16;4.50;;;2.10;;
40046;SDS011;31510;48.122;11.576;2023-02-25T00:38:43;5.47;;;2.50;;
40046;SDS011;31510;48.122;11.576;2023-02-25T00:41:12;4.47;;;2.22;;
40046;SDS011;31510;48.122;11.576;2023-02-25T00:43:40;6.07;;;3.20;;
40046;SDS011;31510;48.122;11.576;2023-02-25T00:46:07;10.77;;;5.45;;
40046;SDS011;31510;48.122;11.576;2023-02-25T00:48:33;7.15;;;3.30;;
40046;SDS011;31510;48.122;11.576;2023-02-25T00:51:06;4.38;;;2.53;;
40046;SDS011;31510;48.122;11.576;2023-02-25T00:53:33;4.68;;;1.90;;
40046;SDS011;31510;48.122;11.576;2023-02-25T00:55:59;4.68;;;2.38;;
40046;SDS011;31510;48.122;11.576;2023-02-25T00:58:25;6.82;;;2.53;;
40046;SDS011;31510;48.122;11.576;2023-02-25T01:00:50;7.15;;;2.38;;
40046;SDS011;31510;48.122;11.576;2023-02-25T01:03:16;5.18;;;2.25;;
40046;SDS011;31510;48.122;11.576;2023-02-25T01:05:41;3.95;;;1.90;;
40046;SDS011;31510;48.122;11.576;2023-02-25T01:08:06;4.18;;;2.00;;
40046;SDS011;31510;48.122;11.576;2023-02-25T01:10:32;4.10;;;2.08;;
40046;SDS011;31510;48.122;11.576;2023-02-25T01:12:57;4.25;;;1.95;;
40046;SDS011;31510;48.122;11.576;2023-02-25T01:15:22;5.75;;;2.33;;
40046;SDS011;31510;48.122;11.576;2023-02-25T01:17:47;4.85;;;2.42;;
40046;SDS011;31510;48.122;11.576;2023-02-25T01:20:13;4.60;;;2.58;;
40046;SDS011;31510;48.122;11.576;2023-02-25T01:25:10;5.65;;;2.63;;
40046;SDS011;31510;48.122;11.576;2023-02-25T01:27:37;4.90;;;2.30;;
40046;SDS011;31510;48.122;11.576;2023-02-25T01:30:03;4.45;;;2.25;;
40046;SDS011;31510;48.122;11.576;2023-02-25T01:32:30;4.22;;;2.38;;
40046;SDS011;31510;48.122;11.576;2023-02-25T01:34:55;4.43;;;2.67;;
40046;SDS011;31510;48.122;11.576;2023-02-25T01:37:20;6.50;;;2.63;;
40046;SDS011;31510;48.122;11.576;2023-02-25T01:39:45;5.25;;;2.70;;
40046;SDS011;31510;48.122;11.576;2023-02-25T01:42:15;5.05;;;2.47;;
40046;SDS011;31510;48.122;11.576;2023-02-25T01:47:47;4.75;;;2.05;;
40046;SDS011;31510;48.122;11.576;2023-02-25T01:50:39;6.72;;;2.58;;
40046;SDS011;31510;48.122;11.576;2023-02-25T01:53:10;3.53;;;2.05;;
40046;SDS011;31510;48.122;11.576;2023-02-25T01:55:37;6.15;;;1.98;;
40046;SDS011;31510;48.122;11.576;2023-02-25T01:58:04;3.67;;;1.67;;
40046;SDS011;31510;48.122;11.576;2023-02-25T02:00:30;6.15;;;2.28;;
40046;SDS011;31510;48.122;11.576;2023-02-25T02:02:57;3.25;;;1.90;;
40046;SDS011;31510;48.122;11.576;2023-02-25T02:05:23;3.38;;;1.90;;
40046;SDS011;31510;48.122;11.576;2023-02-25T02:07:54;3.95;;;2.03;;
40046;SDS011;31510;48.122;11.576;2023-02-25T02:10:19;2.78;;;1.52;;
40046;SDS011;31510;48.122;11.576;2023-02-25T02:12:45;3.75;;;1.73;;
40046;SDS011;31510;48.122;11.576;2023-02-25T02:15:11;3.05;;;1.42;;
40046;SDS011;31510;48.122;11.576;2023-02-25T02:20:11;4.55;;;1.90;;
40046;SDS011;31510;48.122;11.576;2023-02-25T02:23:38;3.80;;;1.77;;
40046;SDS011;31510;48.122;11.576;2023-02-25T02:34:30;2.88;;;1.20;;
40046;SDS011;31510;48.122;11.576;2023-02-25T02:40:00;1.38;;;0.73;;
40046;SDS011;31510;48.122;11.576;2023-02-25T02:47:45;1.92;;;0.82;;
40046;SDS011;31510;48.122;11.576;2023-02-25T02:50:24;2.55;;;0.75;;
40046;SDS011;31510;48.122;11.576;2023-02-25T02:52:58;1.20;;;0.73;;
40046;SDS011;31510;48.122;11.576;2023-02-25T02:55:33;1.95;;;1.13;;
40046;SDS011;31510;48.122;11.576;2023-02-25T02:58:12;3.05;;;0.90;;
40046;SDS011;31510;48.122;11.576;2023-02-25T03:00:49;2.03;;;0.93;;
40046;SDS011;31510;48.122;11.576;2023-02-25T03:03:24;4.68;;;1.58;;
40046;SDS011;31510;48.122;11.576;2023-02-25T03:06:00;1.90;;;1.00;;
40046;SDS011;31510;48.122;11.576;2023-02-25T03:08:27;2.00;;;1.00;;
40046;SDS011;31510;48.122;11.576;2023-02-25T03:10:55;2.28;;;0.90;;
40046;SDS011;31510;48.122;11.576;2023-02-25T03:13:21;1.77;;;0.70;;
40046;SDS011;31510;48.122;11.576;2023-02-25T03:15:46;1.15;;;0.47;;
40046;SDS011;31510;48.122;11.576;2023-02-25T03:18:24;1.00;;;0.40;;
40046;SDS011;31510;48.122;11.576;2023-02-25T03:20:56;1.50;;;0.65;;
40046;SDS011;31510;48.122;11.576;2023-02-25T03:23:30;2.45;;;0.98;;
40046;SDS011;31510;48.122;11.576;2023-02-25T03:26:15;1.10;;;0.40;;
40046;SDS011;31510;48.122;11.576;2023-02-25T03:28:48;2.00;;;0.80;;
40046;SDS011;31510;48.122;11.576;2023-02-25T03:31:17;1.52;;;0.40;;
40046;SDS011;31510;48.122;11.576;2023-02-25T03:33:53;2.95;;;0.75;;
40046;SDS011;31510;48.122;11.576;2023-02-25T03:36:40;0.68;;;0.28;;
40046;SDS011;31510;48.122;11.576;2023-02-25T03:39:20;2.03;;;0.20;;
40046;SDS011;31510;48.122;11.576;2023-02-25T03:41:50;1.85;;;0.63;;
40046;SDS011;31510;48.122;11.576;2023-02-25T03:44:19;1.52;;;0.57;;
40046;SDS011;31510;48.122;11.576;2023-02-25T03:46:49;3.15;;;0.40;;
40046;SDS011;31510;48.122;11.576;2023-02-25T03:49:18;0.57;;;0.30;;
40046;SDS011;31510;48.122;11.576;2023-02-25T03:51:48;1.55;;;0.52;;
40046;SDS011;31510;48.122;11.576;2023-02-25T03:54:14;1.55;;;0.40;;
40046;SDS011;31510;48.122;11.576;2023-02-25T03:56:46;3.55;;;0.60;;
40046;SDS011;31510;48.122;11.576;2023-02-25T03:59:13;1.42;;;0.40;;
40046;SDS011;31510;48.122;11.576;2023-02-25T04:01:39;1.60;;;0.50;;
40046;SDS011;31510;48.122;11.576;2023-02-25T04:04:08;0.77;;;0.30;;
40046;SDS011;31510;48.122;11.576;2023-02-25T04:06:34;2.17;;;0.30;;
40046;SDS011;31510;48.122;11.576;2023-02-25T04:08:59;1.20;;;0.50;;
40046;SDS011;31510;48.122;11.576;2023-02-25T04:11:25;2.15;;;0.82;;
40046;SDS011;31510;48.122;11.576;2023-02-25T04:13:50;1.75;;;0.52;;
40046;SDS011;31510;48.122;11.576;2023-02-25T04:16:15;0.80;;;0.50;;
40046;SDS011;31510;48.122;11.576;2023-02-25T04:18:40;1.08;;;0.47;;
40046;SDS011;31510;48.122;11.576;2023-02-25T04:21:06;0.80;;;0.30;;
40046;SDS011;31510;48.122;11.576;2023-02-25T04:23:33;2.33;;;0.57;;
40046;SDS011;31510;48.122;11.576;2023-02-25T04:25:59;4.30;;;0.80;;
40046;SDS011;31510;48.122;11.576;2023-02-25T04:28:25;1.05;;;0.52;;
40046;SDS011;31510;48.122;11.576;2023-02-25T04:30:50;1.83;;;0.60;;
40046;SDS011;31510;48.122;11.576;2023-02-25T04:33:15;2.30;;;1.00;;
40046;SDS011;31510;48.122;11.576;2023-02-25T04:35:41;2.78;;;1.00;;
40046;SDS011;31510;48.122;11.576;2023-02-25T04:38:06;3.05;;;1.27;;
40046;SDS011;31510;48.122;11.576;2023-02-25T04:40:31;2.42;;;1.65;;
40046;SDS011;31510;48.122;11.576;2023-02-25T04:42:57;2.10;;;1.38;;
40046;SDS011;31510;48.122;11.576;2023-02-25T04:45:22;3.25;;;1.23;;
40046;SDS011;31510;48.122;11.576;2023-02-25T04:47:50;3.60;;;1.35;;
40046;SDS011;31510;48.122;11.576;2023-02-25T04:50:17;2.58;;;1.20;;
40046;SDS011;31510;48.122;11.576;2023-02-25T04:52:43;1.60;;;0.93;;
40046;SDS011;31510;48.122;11.576;2023-02-25T04:55:08;2.28;;;1.20;;
40046;SDS011;31510;48.122;11.576;2023-02-25T04:57:35;3.22;;;1.20;;
40046;SDS011;31510;48.122;11.576;2023-02-25T05:00:07;2.80;;;1.60;;
40046;SDS011;31510;48.122;11.576;2023-02-25T05:02:34;2.78;;;1.33;;
40046;SDS011;31510;48.122;11.576;2023-02-25T05:05:00;2.25;;;1.10;;
40046;SDS011;31510;48.122;11.576;2023-02-25T05:07:25;3.70;;;1.55;;
40046;SDS011;31510;48.122;11.576;2023-02-25T05:09:50;2.75;;;1.50;;
40046;SDS011;31510;48.122;11.576;2023-02-25T05:12:15;3.70;;;1.80;;
40046;SDS011;31510;48.122;11.576;2023-02-25T05:14:41;3.15;;;1.83;;
40046;SDS011;31510;48.122;11.576;2023-02-25T05:17:06;3.38;;;2.08;;
40046;SDS011;31510;48.122;11.576;2023-02-25T05:19:31;3.50;;;2.15;;
40046;SDS011;31510;48.122;11.576;2023-02-25T05:21:57;3.42;;;2.20;;
40046;SDS011;31510;48.122;11.576;2023-02-25T05:24:22;3.63;;;2.13;;
40046;SDS011;31510;48.122;11.576;2023-02-25T05:26:47;3.97;;;2.15;;
40046;SDS011;31510;48.122;11.576;2023-02-25T05:29:13;4.38;;;2.40;;
40046;SDS011;31510;48.122;11.576;2023-02-25T05:31:38;4.75;;;2.70;;
40046;SDS011;31510;48.122;11.576;2023-02-25T05:34:04;6.10;;;2.70;;
40046;SDS011;31510;48.122;11.576;2023-02-25T05:36:29;4.40;;;2.92;;
40046;SDS011;31510;48.122;11.576;2023-02-25T05:38:56;4.55;;;2.47;;
40046;SDS011;31510;48.122;11.576;2023-02-25T05:41:26;5.63;;;3.03;;
40046;SDS011;31510;48.122;11.576;2023-02-25T05:43:53;5.93;;;2.90;;
40046;SDS011;31510;48.122;11.576;2023-02-25T05:46:18;5.22;;;3.10;;
40046;SDS011;31510;48.122;11.576;2023-02-25T05:48:43;4.03;;;2.42;;
40046;SDS011;31510;48.122;11.576;2023-02-25T05:51:13;4.85;;;3.03;;
40046;SDS011;31510;48.122;11.576;2023-02-25T05:53:40;4.97;;;2.88;;
40046;SDS011;31510;48.122;11.576;2023-02-25T05:56:07;6.38;;;3.00;;
40046;SDS011;31510;48.122;11.576;2023-02-25T05:58:33;4.70;;;2.83;;
40046;SDS011;31510;48.122;11.576;2023-02-25T06:00:59;8.38;;;3.10;;
40046;SDS011;31510;48.122;11.576;2023-02-25T06:03:24;7.45;;;3.35;;
40046;SDS011;31510;48.122;11.576;2023-02-25T06:05:50;6.22;;;3.60;;
40046;SDS011;31510;48.122;11.576;2023-02-25T06:08:17;6.10;;;3.83;;
40046;SDS011;31510;48.122;11.576;2023-02-25T06:10:42;6.97;;;3.50;;
40046;SDS011;31510;48.122;11.576;2023-02-25T06:13:08;6.90;;;3.88;;
40046;SDS011;31510;48.122;11.576;2023-02-25T06:15:38;6.45;;;3.33;;
40046;SDS011;31510;48.122;11.576;2023-02-25T06:18:04;8.55;;;4.25;;
40046;SDS011;31510;48.122;11.576;2023-02-25T06:20:30;7.20;;;4.20;;
40046;SDS011;31510;48.122;11.576;2023-02-25T06:22:55;9.40;;;3.35;;
40046;SDS011;31510;48.122;11.576;2023-02-25T06:25:21;7.35;;;3.90;;
40046;SDS011;31510;48.122;11.576;2023-02-25T06:27:46;5.28;;;3.22;;
40046;SDS011;31510;48.122;11.576;2023-02-25T06:30:11;4.78;;;2.90;;
40046;SDS011;31510;48.122;11.576;2023-02-25T06:32:37;7.07;;;3.85;;
40046;SDS011;31510;48.122;11.576;2023-02-25T06:35:03;12.68;;;4.50;;
40046;SDS011;31510;48.122;11.576;2023-02-25T06:37:30;9.95;;;7.05;;
40046;SDS011;31510;48.122;11.576;2023-02-25T06:39:56;9.50;;;6.78;;
40046;SDS011;31510;48.122;11.576;2023-02-25T06:42:21;17.48;;;6.30;;
40046;SDS011;31510;48.122;11.576;2023-02-25T06:44:47;8.25;;;5.20;;
40046;SDS011;31510;48.122;11.576;2023-02-25T06:47:12;9.35;;;4.95;;
40046;SDS011;31510;48.122;11.576;2023-02-25T06:49:37;10.00;;;4.43;;
40046;SDS011;31510;48.122;11.576;2023-02-25T06:52:03;7.55;;;4.10;;
40046;SDS011;31510;48.122;11.576;2023-02-25T06:54:28;7.78;;;4.57;;
40046;SDS011;31510;48.122;11.576;2023-02-25T06:56:53;7.13;;;4.82;;
40046;SDS011;31510;48.122;11.576;2023-02-25T06:59:19;8.95;;;3.88;;
40046;SDS011;31510;48.122;11.576;2023-02-25T07:01:45;7.82;;;4.57;;
40046;SDS011;31510;48.122;11.576;2023-02-25T07:04:14;9.50;;;4.35;;
40046;SDS011;31510;48.122;11.576;2023-02-25T07:06:41;9.23;;;4.60;;
40046;SDS011;31510;48.122;11.576;2023-02-25T07:09:07;8.73;;;4.70;;
40046;SDS011;31510;48.122;11.576;2023-02-25T07:11:32;8.98;;;4.60;;
40046;SDS011;31510;48.122;11.576;2023-02-25T07:13:59;8.38;;;4.68;;
40046;SDS011;31510;48.122;11.576;2023-02-25T07:16:25;8.32;;;4.32;;
40046;SDS011;31510;48.122;11.576;2023-02-25T07:18:53;10.88;;;4.10;;
40046;SDS011;31510;48.122;11.576;2023-02-25T07:21:19;10.77;;;5.00;;
40046;SDS011;31510;48.122;11.576;2023-02-25T07:23:44;10.48;;;3.92;;
40046;SDS011;31510;48.122;11.576;2023-02-25T07:26:11;9.10;;;5.13;;
40046;SDS011;31510;48.122;11.576;2023-02-25T07:28:37;10.93;;;6.15;;
40046;SDS011;31510;48.122;11.576;2023-02-25T07:31:06;8.30;;;5.03;;
40046;SDS011;31510;48.122;11.576;2023-02-25T07:33:34;9.57;;;5.10;;
40046;SDS011;31510;48.122;11.576;2023-02-25T07:35:59;18.45;;;8.80;;
40046;SDS011;31510;48.122;11.576;2023-02-25T07:38:24;11.52;;;6.40;;
40046;SDS011;31510;48.122;11.576;2023-02-25T07:40:50;12.50;;;6.55;;
40046;SDS011;31510;48.122;11.576;2023-02-25T07:43:15;11.00;;;5.38;;
40046;SDS011;31510;48.122;11.576;2023-02-25T07:45:40;13.18;;;8.43;;
40046;SDS011;31510;48.122;11.576;2023-02-25T07:48:06;8.35;;;5.40;;
40046;SDS011;31510;48.122;11.576;2023-02-25T07:50:31;9.73;;;4.25;;
40046;SDS011;31510;48.122;11.576;2023-02-25T07:52:57;10.43;;;5.15;;
40046;SDS011;31510;48.122;11.576;2023-02-25T07:55:22;11.70;;;5.85;;
40046;SDS011;31510;48.122;11.576;2023-02-25T07:57:48;7.85;;;4.93;;
40046;SDS011;31510;48.122;11.576;2023-02-25T08:00:13;8.52;;;4.85;;
40046;SDS011;31510;48.122;11.576;2023-02-25T08:02:39;10.50;;;5.03;;
40046;SDS011;31510;48.122;11.576;2023-02-25T08:05:06;7.80;;;4.90;;
40046;SDS011;31510;48.122;11.576;2023-02-25T08:07:31;8.57;;;4.80;;
40046;SDS011;31510;48.122;11.576;2023-02-25T08:09:58;8.05;;;4.50;;
40046;SDS011;31510;48.122;11.576;2023-02-25T08:12:23;9.48;;;4.35;;
40046;SDS011;31510;48.122;11.576;2023-02-25T08:14:48;8.05;;;4.60;;
40046;SDS011;31510;48.122;11.576;2023-02-25T08:17:13;6.97;;;3.90;;
40046;SDS011;31510;48.122;11.576;2023-02-25T08:19:39;12.32;;;5.32;;
40046;SDS011;31510;48.122;11.576;2023-02-25T08:22:05;8.38;;;4.13;;
40046;SDS011;31510;48.122;11.576;2023-02-25T08:24:32;5.72;;;4.20;;
40046;SDS011;31510;48.122;11.576;2023-02-25T08:26:58;6.45;;;3.70;;
40046;SDS011;31510;48.122;11.576;2023-02-25T08:29:23;10.27;;;3.70;;
40046;SDS011;31510;48.122;11.576;2023-02-25T08:31:49;6.22;;;3.40;;
40046;SDS011;31510;48.122;11.576;2023-02-25T08:34:15;7.63;;;4.15;;
40046;SDS011;31510;48.122;11.576;2023-02-25T08:36:42;9.50;;;5.00;;
40046;SDS011;31510;48.122;11.576;2023-02-25T08:39:08;8.73;;;3.78;;
40046;SDS011;31510;48.122;11.576;2023-02-25T08:41:34;5.80;;;2.80;;
40046;SDS011;31510;48.122;11.576;2023-02-25T08:43:59;7.32;;;3.05;;
40046;SDS011;31510;48.122;11.576;2023-02-25T08:46:26;14.68;;;3.90;;
40046;SDS011;31510;48.122;11.576;2023-02-25T08:48:52;5.50;;;3.78;;
40046;SDS011;31510;48.122;11.576;2023-02-25T08:51:19;7.85;;;3.50;;
40046;SDS011;31510;48.122;11.576;2023-02-25T08:53:45;8.93;;;3.78;;
40046;SDS011;31510;48.122;11.576;2023-02-25T08:56:11;8.93;;;3.08;;
40046;SDS011;31510;48.122;11.576;2023-02-25T08:58:38;8.07;;;3.33;;
40046;SDS011;31510;48.122;11.576;2023-02-25T09:01:05;5.35;;;2.67;;
40046;SDS011;31510;48.122;11.576;2023-02-25T09:03:45;8.00;;;3.00;;
40046;SDS011;31510;48.122;11.576;2023-02-25T09:06:18;9.27;;;4.50;;
40046;SDS011;31510;48.122;11.576;2023-02-25T09:11:15;9.45;;;4.18;;
40046;SDS011;31510;48.122;11.576;2023-02-25T09:13:41;5.32;;;3.08;;
40046;SDS011;31510;48.122;11.576;2023-02-25T09:16:06;8.80;;;3.20;;
40046;SDS011;31510;48.122;11.576;2023-02-25T09:18:32;6.88;;;2.65;;
40046;SDS011;31510;48.122;11.576;2023-02-25T09:20:57;3.65;;;1.88;;
40046;SDS011;31510;48.122;11.576;2023-02-25T09:23:23;5.85;;;1.80;;
40046;SDS011;31510;48.122;11.576;2023-02-25T09:25:48;4.28;;;2.13;;
40046;SDS011;31510;48.122;11.576;2023-02-25T09:28:13;3.15;;;1.65;;
40046;SDS011;31510;48.122;11.576;2023-02-25T09:30:39;3.50;;;1.50;;
40046;SDS011;31510;48.122;11.576;2023-02-25T09:33:04;3.90;;;1.60;;
40046;SDS011;31510;48.122;11.576;2023-02-25T09:35:29;11.60;;;3.03;;
40046;SDS011;31510;48.122;11.576;2023-02-25T09:37:55;2.78;;;1.60;;
40046;SDS011;31510;48.122;11.576;2023-02-25T09:40:22;3.97;;;1.77;;
40046;SDS011;31510;48.122;11.576;2023-02-25T09:45:33;8.45;;;2.08;;
40046;SDS011;31510;48.122;11.576;2023-02-25T09:48:01;6.20;;;1.50;;
40046;SDS011;31510;48.122;11.576;2023-02-25T09:50:35;5.85;;;1.02;;
40046;SDS011;31510;48.122;11.576;2023-02-25T09:53:09;38.28;;;16.52;;
40046;SDS011;31510;48.122;11.576;2023-02-25T09:55:41;9.82;;;5.13;;
40046;SDS011;31510;48.122;11.576;2023-02-25T10:06:41;4.35;;;1.92;;
40046;SDS011;31510;48.122;11.576;2023-02-25T10:09:30;7.20;;;2.55;;
40046;SDS011;31510;48.122;11.576;2023-02-25T10:12:31;10.07;;;3.80;;
40046;SDS011;31510;48.122;11.576;2023-02-25T10:17:41;6.07;;;1.30;;
40046;SDS011;31510;48.122;11.576;2023-02-25T10:23:29;6.82;;;1.77;;
40046;SDS011;31510;48.122;11.576;2023-02-25T10:26:16;10.65;;;1.63;;
40046;SDS011;31510;48.122;11.576;2023-02-25T10:28:46;4.30;;;1.30;;
40046;SDS011;31510;48.122;11.576;2023-02-25T10:31:15;4.15;;;1.50;;
40046;SDS011;31510;48.122;11.576;2023-02-25T10:33:44;4.13;;;1.25;;
40046;SDS011;31510;48.122;11.576;2023-02-25T10:36:14;6.70;;;2.55;;
40046;SDS011;31510;48.122;11.576;2023-02-25T10:38:42;2.83;;;1.08;;
40046;SDS011;31510;48.122;11.576;2023-02-25T10:41:16;2.72;;;0.90;;
40046;SDS011;31510;48.122;11.576;2023-02-25T10:43:43;4.95;;;1.13;;
40046;SDS011;31510;48.122;11.576;2023-02-25T10:46:12;5.18;;;1.10;;
40046;SDS011;31510;48.122;11.576;2023-02-25T10:48:40;3.22;;;1.25;;
40046;SDS011;31510;48.122;11.576;2023-02-25T10:51:08;5.13;;;2.13;;
40046;SDS011;31510;48.122;11.576;2023-02-25T10:54:01;2.55;;;1.40;;
40046;SDS011;31510;48.122;11.576;2023-02-25T10:56:33;8.60;;;0.95;;
40046;SDS011;31510;48.122;11.576;2023-02-25T10:59:33;4.88;;;0.95;;
40046;SDS011;31510;48.122;11.576;2023-02-25T11:01:54;6.03;;;1.73;;
40046;SDS011;31510;48.122;11.576;2023-02-25T11:04:36;3.05;;;1.25;;
40046;SDS011;31510;48.122;11.576;2023-02-25T11:12:31;2.78;;;0.93;;
40046;SDS011;31510;48.122;11.576;2023-02-25T11:17:42;2.10;;;1.13;;
40046;SDS011;31510;48.122;11.576;2023-02-25T11:20:12;3.58;;;1.15;;
40046;SDS011;31510;48.122;11.576;2023-02-25T11:22:47;4.13;;;1.35;;
40046;SDS011;31510;48.122;11.576;2023-02-25T11:25:17;2.83;;;1.00;;
40046;SDS011;31510;48.122;11.576;2023-02-25T11:27:46;2.95;;;0.93;;
40046;SDS011;31510;48.122;11.576;2023-02-25T11:30:18;3.00;;;0.65;;
40046;SDS011;31510;48.122;11.576;2023-02-25T11:32:50;8.95;;;1.60;;
40046;SDS011;31510;48.122;11.576;2023-02-25T11:35:28;4.65;;;1.20;;
40046;SDS011;31510;48.122;11.576;2023-02-25T11:37:59;3.38;;;0.80;;
40046;SDS011;31510;48.122;11.576;2023-02-25T11:40:42;7.50;;;1.35;;
40046;SDS011;31510;48.122;11.576;2023-02-25T11:43:13;4.60;;;0.93;;
40046;SDS011;31510;48.122;11.576;2023-02-25T11:45:58;1.73;;;0.30;;
40046;SDS011;31510;48.122;11.576;2023-02-25T11:48:29;2.80;;;0.50;;
40046;SDS011;31510;48.122;11.576;2023-02-25T11:51:18;4.28;;;0.60;;
40046;SDS011;31510;48.122;11.576;2023-02-25T11:53:51;2.53;;;0.40;;
40046;SDS011;31510;48.122;11.576;2023-02-25T11:56:37;6.50;;;1.23;;
40046;SDS011;31510;48.122;11.576;2023-02-25T12:07:42;2.55;;;0.50;;
40046;SDS011;31510;48.122;11.576;2023-02-25T12:29:38;4.82;;;0.90;;
40046;SDS011;31510;48.122;11.576;2023-02-25T12:32:21;1.70;;;0.60;;
40046;SDS011;31510;48.122;11.576;2023-02-25T12:40:25;4.30;;;0.70;;
40046;SDS011;31510;48.122;11.576;2023-02-25T12:42:59;1.35;;;0.50;;
40046;SDS011;31510;48.122;11.576;2023-02-25T12:59:31;4.88;;;1.35;;
40046;SDS011;31510;48.122;11.576;2023-02-25T13:07:43;2.90;;;0.77;;
40046;SDS011;31510;48.122;11.576;2023-02-25T13:18:56;1.42;;;0.30;;
40046;SDS011;31510;48.122;11.576;2023-02-25T13:21:50;3.47;;;0.63;;
40046;SDS011;31510;48.122;11.576;2023-02-25T13:27:29;2.70;;;0.60;;
40046;SDS011;31510;48.122;11.576;2023-02-25T13:32:43;1.52;;;0.50;;
40046;SDS011;31510;48.122;11.576;2023-02-25T14:03:43;1.83;;;0.30;;
40046;SDS011;31510;48.122;11.576;2023-02-25T14:11:33;2.75;;;0.40;;
40046;SDS011;31510;48.122;11.576;2023-02-25T14:16:53;0.45;;;0.20;;
40046;SDS011;31510;48.122;11.576;2023-02-25T14:19:33;2.80;;;0.75;;
40046;SDS011;31510;48.122;11.576;2023-02-25T14:24:49;2.58;;;0.60;;
40046;SDS011;31510;48.122;11.576;2023-02-25T14:30:05;3.42;;;0.52;;
40046;SDS011;31510;48.122;11.576;2023-02-25T14:35:48;1.73;;;0.60;;
40046;SDS011;31510;48.122;11.576;2023-02-25T14:44:32;1.50;;;0.52;;
40046;SDS011;31510;48.122;11.576;2023-02-25T14:47:12;1.88;;;0.55;;
40046;SDS011;31510;48.122;11.576;2023-02-25T14:49:49;2.45;;;0.80;;
40046;SDS011;31510;48.122;11.576;2023-02-25T14:52:27;2.25;;;0.38;;
40046;SDS011;31510;48.122;11.576;2023-02-25T15:01:05;1.48;;;0.35;;
40046;SDS011;31510;48.122;11.576;2023-02-25T15:19:37;2.10;;;0.57;;
40046;SDS011;31510;48.122;11.576;2023-02-25T15:22:17;2.80;;;0.90;;
40046;SDS011;31510;48.122;11.576;2023-02-25T15:24:43;3.75;;;0.90;;
40046;SDS011;31510;48.122;11.576;2023-02-25T15:29:59;3.20;;;0.82;;
40046;SDS011;31510;48.122;11.576;2023-02-25T15:32:27;2.80;;;1.20;;
40046;SDS011;31510;48.122;11.576;2023-02-25T15:37:24;4.93;;;2.10;;
40046;SDS011;31510;48.122;11.576;2023-02-25T15:39:53;5.35;;;2.80;;
40046;SDS011;31510;48.122;11.576;2023-02-25T15:53:35;3.65;;;1.00;;
40046;SDS011;31510;48.122;11.576;2023-02-25T16:00:59;22.07;;;11.00;;
40046;SDS011;31510;48.122;11.576;2023-02-25T16:11:29;2.60;;;0.88;;
40046;SDS011;31510;48.122;11.576;2023-02-25T16:13:59;1.08;;;0.50;;
40046;SDS011;31510;48.122;11.576;2023-02-25T16:16:29;2.50;;;1.20;;
40046;SDS011;31510;48.122;11.576;2023-02-25T16:18:57;4.53;;;1.77;;
40046;SDS011;31510;48.122;11.576;2023-02-25T16:21:36;1.90;;;0.73;;
40046;SDS011;31510;48.122;11.576;2023-02-25T16:24:10;3.72;;;2.40;;
40046;SDS011;31510;48.122;11.576;2023-02-25T16:31:57;8.35;;;5.25;;
40046;SDS011;31510;48.122;11.576;2023-02-25T16:37:12;4.13;;;3.08;;
40046;SDS011;31510;48.122;11.576;2023-02-25T16:39:46;6.68;;;3.95;;
40046;SDS011;31510;48.122;11.576;2023-02-25T16:42:13;3.20;;;1.73;;
40046;SDS011;31510;48.122;11.576;2023-02-25T16:44:43;3.10;;;2.70;;
40046;SDS011;31510;48.122;11.576;2023-02-25T16:47:44;3.60;;;2.10;;
40046;SDS011;31510;48.122;11.576;2023-02-25T16:50:04;3.05;;;1.52;;
40046;SDS011;31510;48.122;11.576;2023-02-25T16:52:40;5.00;;;2.83;;
40046;SDS011;31510;48.122;11.576;2023-02-25T16:55:15;1.58;;;1.10;;
40046;SDS011;31510;48.122;11.576;2023-02-25T16:58:06;2.17;;;1.05;;
40046;SDS011;31510;48.122;11.576;2023-02-25T17:00:51;3.78;;;1.13;;
40046;SDS011;31510;48.122;11.576;2023-02-25T17:03:21;2.28;;;0.73;;
40046;SDS011;31510;48.122;11.576;2023-02-25T17:08:45;3.78;;;1.80;;
40046;SDS011;31510;48.122;11.576;2023-02-25T17:11:16;4.07;;;2.22;;
40046;SDS011;31510;48.122;11.576;2023-02-25T17:13:42;2.10;;;1.10;;
40046;SDS011;31510;48.122;11.576;2023-02-25T17:16:16;5.15;;;1.27;;
40046;SDS011;31510;48.122;11.576;2023-02-25T17:18:49;3.85;;;1.60;;
40046;SDS011;31510;48.122;11.576;2023-02-25T17:21:28;4.57;;;1.10;;
40046;SDS011;31510;48.122;11.576;2023-02-25T17:23:59;2.58;;;0.90;;
40046;SDS011;31510;48.122;11.576;2023-02-25T17:26:27;2.47;;;0.98;;
40046;SDS011;31510;48.122;11.576;2023-02-25T17:28:54;3.00;;;1.02;;
40046;SDS011;31510;48.122;11.576;2023-02-25T17:31:24;2.38;;;0.80;;
40046;SDS011;31510;48.122;11.576;2023-02-25T17:33:54;2.50;;;1.27;;
40046;SDS011;31510;48.122;11.576;2023-02-25T17:36:25;1.70;;;0.75;;
40046;SDS011;31510;48.122;11.576;2023-02-25T17:38:57;1.83;;;0.80;;
40046;SDS011;31510;48.122;11.576;2023-02-25T17:41:25;2.03;;;0.77;;
40046;SDS011;31510;48.122;11.576;2023-02-25T17:43:51;3.55;;;1.55;;
40046;SDS011;31510;48.122;11.576;2023-02-25T17:46:27;2.53;;;0.65;;
40046;SDS011;31510;48.122;11.576;2023-02-25T17:48:55;3.08;;;1.15;;
40046;SDS011;31510;48.122;11.576;2023-02-25T17:51:36;2.92;;;1.15;;
40046;SDS011;31510;48.122;11.576;2023-02-25T17:54:15;3.90;;;1.00;;
40046;SDS011;31510;48.122;11.576;2023-02-25T17:56:42;2.83;;;0.50;;
40046;SDS011;31510;48.122;11.576;2023-02-25T18:01:44;1.05;;;0.28;;
40046;SDS011;31510;48.122;11.576;2023-02-25T18:04:20;0.65;;;0.22;;
40046;SDS011;31510;48.122;11.576;2023-02-25T18:06:47;0.57;;;0.20;;
40046;SDS011;31510;48.122;11.576;2023-02-25T18:12:00;2.45;;;0.98;;
40046;SDS011;31510;48.122;11.576;2023-02-25T18:17:00;4.85;;;1.40;;
40046;SDS011;31510;48.122;11.576;2023-02-25T18:19:36;6.15;;;2.53;;
40046;SDS011;31510;48.122;11.576;2023-02-25T18:22:03;2.28;;;0.73;;
40046;SDS011;31510;48.122;11.576;2023-02-25T18:24:32;1.15;;;0.68;;
40046;SDS011;31510;48.122;11.576;2023-02-25T18:27:18;2.75;;;1.27;;
40046;SDS011;31510;48.122;11.576;2023-02-25T18:29:51;0.82;;;0.20;;
40046;SDS011;31510;48.122;11.576;2023-02-25T18:32:17;0.20;;;0.10;;
40046;SDS011;31510;48.122;11.576;2023-02-25T18:34:42;2.38;;;0.90;;
40046;SDS011;31510;48.122;11.576;2023-02-25T18:37:09;1.48;;;1.17;;
40046;SDS011;31510;48.122;11.576;2023-02-25T18:39:38;2.67;;;2.03;;
40046;SDS011;31510;48.122;11.576;2023-02-25T18:42:03;2.10;;;0.82;;
40046;SDS011;31510;48.122;11.576;2023-02-25T18:44:29;1.95;;;0.70;;
40046;SDS011;31510;48.122;11.576;2023-02-25T18:46:54;2.63;;;0.65;;
40046;SDS011;31510;48.122;11.576;2023-02-25T18:49:20;2.35;;;0.85;;